sensor_id;sensor_type;location;lat;lon;timestamp;temperature;humidity
60027;DHT22;45891;53.006;6.512;2023-07-13T00:01:35;16.10;99.90
60027;DHT22;45891;53.006;6.512;2023-07-13T00:04:03;16.00;99.90
60027;DHT22;45891;53.006;6.512;2023-07-13T00:06:30;16.10;99.90
60027;DHT22;45891;53.006;6.512;2023-07-13T00:09:01;16.10;99.90
60027;DHT22;45891;53.006;6.512;2023-07-13T00:11:28;16.10;99.90
60027;DHT22;45891;53.006;6.512;2023-07-13T00:13:57;16.10;99.90
60027;DHT22;45891;53.006;6.512;2023-07-13T00:16:23;16.10;99.90
60027;DHT22;45891;53.006;6.512;2023-07-13T00:18:49;16.10;99.90
60027;DHT22;45891;53.006;6.512;2023-07-13T00:21:15;16.10;99.90
60027;DHT22;45891;53.006;6.512;2023-07-13T00:23:42;16.10;99.90
60027;DHT22;45891;53.006;6.512;2023-07-13T00:26:09;16.10;99.90
60027;DHT22;45891;53.006;6.512;2023-07-13T00:28:37;16.10;99.90
60027;DHT22;45891;53.006;6.512;2023-07-13T00:31:03;16.10;99.90
60027;DHT22;45891;53.006;6.512;2023-07-13T00:33:30;16.10;99.90
60027;DHT22;45891;53.006;6.512;2023-07-13T00:35:56;16.20;99.90
60027;DHT22;45891;53.006;6.512;2023-07-13T00:38:25;16.20;99.90
60027;DHT22;45891;53.006;6.512;2023-07-13T00:40:52;16.20;99.90
60027;DHT22;45891;53.006;6.512;2023-07-13T00:43:21;16.20;99.90
60027;DHT22;45891;53.006;6.512;2023-07-13T00:48:24;16.30;99.90
60027;DHT22;45891;53.006;6.512;2023-07-13T00:50:53;16.30;99.90
60027;DHT22;45891;53.006;6.512;2023-07-13T00:53:21;16.30;99.90
60027;DHT22;45891;53.006;6.512;2023-07-13T00:55:51;16.30;99.90
60027;DHT22;45891;53.006;6.512;2023-07-13T00:58:19;16.30;99.90
60027;DHT22;45891;53.006;6.512;2023-07-13T01:00:47;16.30;99.90
60027;DHT22;45891;53.006;6.512;2023-07-13T01:03:15;16.30;99.90
60027;DHT22;45891;53.006;6.512;2023-07-13T01:05:41;16.20;99.90
60027;DHT22;45891;53.006;6.512;2023-07-13T01:08:08;16.20;99.90
60027;DHT22;45891;53.006;6.512;2023-07-13T01:10:34;16.20;99.90
60027;DHT22;45891;53.006;6.512;2023-07-13T01:13:08;16.20;99.90
60027;DHT22;45891;53.006;6.512;2023-07-13T01:15:43;16.20;99.90
60027;DHT22;45891;53.006;6.512;2023-07-13T01:18:19;16.20;99.90
60027;DHT22;45891;53.006;6.512;2023-07-13T01:20:54;16.20;99.90
60027;DHT22;45891;53.006;6.512;2023-07-13T01:23:21;16.20;99.90
60027;DHT22;45891;53.006;6.512;2023-07-13T01:25:51;16.30;99.90
60027;DHT22;45891;53.006;6.512;2023-07-13T01:28:17;16.20;99.90
60027;DHT22;45891;53.006;6.512;2023-07-13T01:30:47;16.30;99.90
60027;DHT22;45891;53.006;6.512;2023-07-13T01:33:16;16.30;99.90
60027;DHT22;45891;53.006;6.512;2023-07-13T01:35:44;16.30;99.90
60027;DHT22;45891;53.006;6.512;2023-07-13T01:38:15;16.30;99.90
60027;DHT22;45891;53.006;6.512;2023-07-13T01:40:42;16.30;99.90
60027;DHT22;45891;53.006;6.512;2023-07-13T01:43:08;16.30;99.90
60027;DHT22;45891;53.006;6.512;2023-07-13T01:45:34;16.30;99.90
60027;DHT22;45891;53.006;6.512;2023-07-13T01:48:02;16.30;99.90
60027;DHT22;45891;53.006;6.512;2023-07-13T01:50:29;16.30;99.90
60027;DHT22;45891;53.006;6.512;2023-07-13T01:52:55;16.30;99.90
60027;DHT22;45891;53.006;6.512;2023-07-13T01:55:21;16.30;99.90
60027;DHT22;45891;53.006;6.512;2023-07-13T01:57:48;16.30;99.90
60027;DHT22;45891;53.006;6.512;2023-07-13T02:00:15;16.30;99.90
60027;DHT22;45891;53.006;6.512;2023-07-13T02:02:41;16.20;99.90
60027;DHT22;45891;53.006;6.512;2023-07-13T02:05:07;16.30;99.90
60027;DHT22;45891;53.006;6.512;2023-07-13T02:07:36;16.20;99.90
60027;DHT22;45891;53.006;6.512;2023-07-13T02:10:02;16.20;99.90
60027;DHT22;45891;53.006;6.512;2023-07-13T02:12:29;16.20;99.90
60027;DHT22;45891;53.006;6.512;2023-07-13T02:14:55;16.10;99.90
60027;DHT22;45891;53.006;6.512;2023-07-13T02:17:21;16.10;99.90
60027;DHT22;45891;53.006;6.512;2023-07-13T02:19:50;16.00;99.90
60027;DHT22;45891;53.006;6.512;2023-07-13T02:22:16;16.00;99.90
60027;DHT22;45891;53.006;6.512;2023-07-13T02:24:42;15.90;99.90
60027;DHT22;45891;53.006;6.512;2023-07-13T02:27:08;15.90;99.90
60027;DHT22;45891;53.006;6.512;2023-07-13T02:29:35;15.90;99.90
60027;DHT22;45891;53.006;6.512;2023-07-13T02:32:01;15.80;99.90
60027;DHT22;45891;53.006;6.512;2023-07-13T02:34:28;15.80;99.90
60027;DHT22;45891;53.006;6.512;2023-07-13T02:36:54;15.80;99.90
60027;DHT22;45891;53.006;6.512;2023-07-13T02:39:20;15.70;99.90
60027;DHT22;45891;53.006;6.512;2023-07-13T02:41:46;15.80;99.90
60027;DHT22;45891;53.006;6.512;2023-07-13T02:44:13;15.70;99.90
60027;DHT22;45891;53.006;6.512;2023-07-13T02:46:40;15.70;99.90
60027;DHT22;45891;53.006;6.512;2023-07-13T02:49:06;15.70;99.90
60027;DHT22;45891;53.006;6.512;2023-07-13T02:51:33;15.60;99.90
60027;DHT22;45891;53.006;6.512;2023-07-13T02:54:04;15.60;99.90
60027;DHT22;45891;53.006;6.512;2023-07-13T02:56:32;15.60;99.90
60027;DHT22;45891;53.006;6.512;2023-07-13T02:58:58;15.60;99.90
60027;DHT22;45891;53.006;6.512;2023-07-13T03:01:25;15.60;99.90
60027;DHT22;45891;53.006;6.512;2023-07-13T03:03:52;15.60;99.90
60027;DHT22;45891;53.006;6.512;2023-07-13T03:06:19;15.60;99.90
60027;DHT22;45891;53.006;6.512;2023-07-13T03:08:45;15.70;99.90
60027;DHT22;45891;53.006;6.512;2023-07-13T03:11:17;15.60;99.90
60027;DHT22;45891;53.006;6.512;2023-07-13T03:13:46;15.60;99.90
60027;DHT22;45891;53.006;6.512;2023-07-13T03:16:13;15.50;99.90
60027;DHT22;45891;53.006;6.512;2023-07-13T03:18:41;15.50;99.90
60027;DHT22;45891;53.006;6.512;2023-07-13T03:21:08;15.50;99.90
60027;DHT22;45891;53.006;6.512;2023-07-13T03:23:34;15.40;99.90
60027;DHT22;45891;53.006;6.512;2023-07-13T03:26:02;15.40;99.90
60027;DHT22;45891;53.006;6.512;2023-07-13T03:28:29;15.50;99.90
60027;DHT22;45891;53.006;6.512;2023-07-13T03:31:07;15.50;99.90
60027;DHT22;45891;53.006;6.512;2023-07-13T03:33:34;15.50;99.90
60027;DHT22;45891;53.006;6.512;2023-07-13T03:36:00;15.50;99.90
60027;DHT22;45891;53.006;6.512;2023-07-13T03:38:27;15.60;99.90
60027;DHT22;45891;53.006;6.512;2023-07-13T03:40:53;15.50;99.90
60027;DHT22;45891;53.006;6.512;2023-07-13T03:43:19;15.50;99.90
60027;DHT22;45891;53.006;6.512;2023-07-13T03:45:46;15.40;99.90
60027;DHT22;45891;53.006;6.512;2023-07-13T03:48:13;15.40;99.90
60027;DHT22;45891;53.006;6.512;2023-07-13T03:50:40;15.40;99.90
60027;DHT22;45891;53.006;6.512;2023-07-13T03:53:06;15.40;99.90
60027;DHT22;45891;53.006;6.512;2023-07-13T03:55:33;15.50;99.90
60027;DHT22;45891;53.006;6.512;2023-07-13T03:58:22;15.50;99.90
60027;DHT22;45891;53.006;6.512;2023-07-13T04:00:50;15.40;99.90
60027;DHT22;45891;53.006;6.512;2023-07-13T04:03:16;15.40;99.90
60027;DHT22;45891;53.006;6.512;2023-07-13T04:05:42;15.40;99.90
60027;DHT22;45891;53.006;6.512;2023-07-13T04:08:08;15.40;99.90
60027;DHT22;45891;53.006;6.512;2023-07-13T04:10:35;15.50;99.90
60027;DHT22;45891;53.006;6.512;2023-07-13T04:13:01;15.50;99.90
60027;DHT22;45891;53.006;6.512;2023-07-13T04:15:30;15.60;99.90
60027;DHT22;45891;53.006;6.512;2023-07-13T04:17:56;15.60;99.90
60027;DHT22;45891;53.006;6.512;2023-07-13T04:20:24;15.60;99.90
60027;DHT22;45891;53.006;6.512;2023-07-13T04:22:51;15.70;99.90
60027;DHT22;45891;53.006;6.512;2023-07-13T04:25:20;15.70;99.90
60027;DHT22;45891;53.006;6.512;2023-07-13T04:27:49;15.80;99.90
60027;DHT22;45891;53.006;6.512;2023-07-13T04:30:18;15.80;99.90
60027;DHT22;45891;53.006;6.512;2023-07-13T04:32:44;15.80;99.90
60027;DHT22;45891;53.006;6.512;2023-07-13T04:35:11;15.90;99.90
60027;DHT22;45891;53.006;6.512;2023-07-13T04:37:40;15.90;99.90
60027;DHT22;45891;53.006;6.512;2023-07-13T04:40:07;15.90;99.90
60027;DHT22;45891;53.006;6.512;2023-07-13T04:42:38;15.90;99.90
60027;DHT22;45891;53.006;6.512;2023-07-13T04:45:06;15.90;99.90
60027;DHT22;45891;53.006;6.512;2023-07-13T04:47:33;16.00;99.90
60027;DHT22;45891;53.006;6.512;2023-07-13T04:50:02;16.00;99.90
60027;DHT22;45891;53.006;6.512;2023-07-13T04:52:28;16.00;99.90
60027;DHT22;45891;53.006;6.512;2023-07-13T04:54:57;16.00;99.90
60027;DHT22;45891;53.006;6.512;2023-07-13T04:57:23;16.10;99.90
60027;DHT22;45891;53.006;6.512;2023-07-13T04:59:49;16.10;99.90
60027;DHT22;45891;53.006;6.512;2023-07-13T05:02:15;16.20;99.90
60027;DHT22;45891;53.006;6.512;2023-07-13T05:04:42;16.20;99.90
60027;DHT22;45891;53.006;6.512;2023-07-13T05:07:09;16.20;99.90
60027;DHT22;45891;53.006;6.512;2023-07-13T05:09:35;16.20;99.90
60027;DHT22;45891;53.006;6.512;2023-07-13T05:12:02;16.30;99.90
60027;DHT22;45891;53.006;6.512;2023-07-13T05:14:28;16.30;99.90
60027;DHT22;45891;53.006;6.512;2023-07-13T05:16:54;16.40;99.90
60027;DHT22;45891;53.006;6.512;2023-07-13T05:19:23;16.40;99.90
60027;DHT22;45891;53.006;6.512;2023-07-13T05:21:49;16.50;99.90
60027;DHT22;45891;53.006;6.512;2023-07-13T05:24:15;16.50;99.90
60027;DHT22;45891;53.006;6.512;2023-07-13T05:26:41;16.60;99.90
60027;DHT22;45891;53.006;6.512;2023-07-13T05:29:08;16.70;99.90
60027;DHT22;45891;53.006;6.512;2023-07-13T05:31:34;16.80;99.90
60027;DHT22;45891;53.006;6.512;2023-07-13T05:34:00;16.80;99.90
60027;DHT22;45891;53.006;6.512;2023-07-13T05:36:26;16.80;99.90
60027;DHT22;45891;53.006;6.512;2023-07-13T05:38:52;16.90;99.90
60027;DHT22;45891;53.006;6.512;2023-07-13T05:41:19;16.90;99.90
60027;DHT22;45891;53.006;6.512;2023-07-13T05:43:45;16.90;99.90
60027;DHT22;45891;53.006;6.512;2023-07-13T05:46:11;17.10;99.90
60027;DHT22;45891;53.006;6.512;2023-07-13T05:48:37;17.10;99.90
60027;DHT22;45891;53.006;6.512;2023-07-13T05:51:05;17.30;99.90
60027;DHT22;45891;53.006;6.512;2023-07-13T05:53:32;17.40;99.90
60027;DHT22;45891;53.006;6.512;2023-07-13T05:55:58;17.50;99.90
60027;DHT22;45891;53.006;6.512;2023-07-13T05:58:24;17.60;99.90
60027;DHT22;45891;53.006;6.512;2023-07-13T06:01:00;17.70;99.90
60027;DHT22;45891;53.006;6.512;2023-07-13T06:03:26;17.80;99.90
60027;DHT22;45891;53.006;6.512;2023-07-13T06:05:53;17.90;99.90
60027;DHT22;45891;53.006;6.512;2023-07-13T06:08:21;18.10;99.90
60027;DHT22;45891;53.006;6.512;2023-07-13T06:10:48;18.30;99.90
60027;DHT22;45891;53.006;6.512;2023-07-13T06:13:14;18.50;99.90
60027;DHT22;45891;53.006;6.512;2023-07-13T06:15:40;18.60;99.90
60027;DHT22;45891;53.006;6.512;2023-07-13T06:18:09;18.80;99.90
60027;DHT22;45891;53.006;6.512;2023-07-13T06:20:35;18.90;99.90
60027;DHT22;45891;53.006;6.512;2023-07-13T06:23:02;18.80;99.90
60027;DHT22;45891;53.006;6.512;2023-07-13T06:25:28;18.90;99.90
60027;DHT22;45891;53.006;6.512;2023-07-13T06:27:54;18.90;99.90
60027;DHT22;45891;53.006;6.512;2023-07-13T06:30:21;19.00;99.90
60027;DHT22;45891;53.006;6.512;2023-07-13T06:32:47;19.10;99.90
60027;DHT22;45891;53.006;6.512;2023-07-13T06:35:13;19.40;99.90
60027;DHT22;45891;53.006;6.512;2023-07-13T06:37:39;19.60;99.90
60027;DHT22;45891;53.006;6.512;2023-07-13T06:40:06;19.90;99.90
60027;DHT22;45891;53.006;6.512;2023-07-13T06:42:35;20.10;99.90
60027;DHT22;45891;53.006;6.512;2023-07-13T06:45:02;20.20;99.90
60027;DHT22;45891;53.006;6.512;2023-07-13T06:47:28;20.10;99.90
60027;DHT22;45891;53.006;6.512;2023-07-13T06:49:57;20.30;99.90
60027;DHT22;45891;53.006;6.512;2023-07-13T06:52:23;20.50;99.90
60027;DHT22;45891;53.006;6.512;2023-07-13T06:54:49;20.60;99.90
60027;DHT22;45891;53.006;6.512;2023-07-13T06:57:15;20.80;99.90
60027;DHT22;45891;53.006;6.512;2023-07-13T06:59:42;20.90;99.90
60027;DHT22;45891;53.006;6.512;2023-07-13T07:02:09;21.00;99.90
60027;DHT22;45891;53.006;6.512;2023-07-13T07:04:36;21.30;99.90
60027;DHT22;45891;53.006;6.512;2023-07-13T07:07:02;21.50;99.90
60027;DHT22;45891;53.006;6.512;2023-07-13T07:09:28;21.70;99.90
60027;DHT22;45891;53.006;6.512;2023-07-13T07:11:57;21.60;99.90
60027;DHT22;45891;53.006;6.512;2023-07-13T07:14:23;21.50;99.90
60027;DHT22;45891;53.006;6.512;2023-07-13T07:16:50;21.50;99.90
60027;DHT22;45891;53.006;6.512;2023-07-13T07:19:16;21.30;99.90
60027;DHT22;45891;53.006;6.512;2023-07-13T07:21:42;21.20;99.90
60027;DHT22;45891;53.006;6.512;2023-07-13T07:24:09;21.20;99.90
60027;DHT22;45891;53.006;6.512;2023-07-13T07:26:35;21.00;99.90
60027;DHT22;45891;53.006;6.512;2023-07-13T07:29:03;21.00;99.90
60027;DHT22;45891;53.006;6.512;2023-07-13T07:31:30;20.70;99.90
60027;DHT22;45891;53.006;6.512;2023-07-13T07:33:56;20.50;99.90
60027;DHT22;45891;53.006;6.512;2023-07-13T07:36:22;20.50;99.90
60027;DHT22;45891;53.006;6.512;2023-07-13T07:38:48;20.70;99.90
60027;DHT22;45891;53.006;6.512;2023-07-13T07:41:14;21.00;99.90
60027;DHT22;45891;53.006;6.512;2023-07-13T07:43:40;21.00;99.90
60027;DHT22;45891;53.006;6.512;2023-07-13T07:46:09;20.70;99.90
60027;DHT22;45891;53.006;6.512;2023-07-13T07:48:35;20.20;99.90
60027;DHT22;45891;53.006;6.512;2023-07-13T07:51:02;20.00;99.90
60027;DHT22;45891;53.006;6.512;2023-07-13T07:53:28;19.90;99.90
60027;DHT22;45891;53.006;6.512;2023-07-13T07:55:54;19.90;99.90
60027;DHT22;45891;53.006;6.512;2023-07-13T07:58:20;19.90;99.90
60027;DHT22;45891;53.006;6.512;2023-07-13T08:00:47;19.90;99.90
60027;DHT22;45891;53.006;6.512;2023-07-13T08:03:13;19.90;99.90
60027;DHT22;45891;53.006;6.512;2023-07-13T08:05:39;19.90;99.90
60027;DHT22;45891;53.006;6.512;2023-07-13T08:08:05;19.90;99.90
60027;DHT22;45891;53.006;6.512;2023-07-13T08:10:34;19.90;99.90
60027;DHT22;45891;53.006;6.512;2023-07-13T08:13:00;19.90;99.90
60027;DHT22;45891;53.006;6.512;2023-07-13T08:15:26;19.80;99.90
60027;DHT22;45891;53.006;6.512;2023-07-13T08:17:52;19.80;99.90
60027;DHT22;45891;53.006;6.512;2023-07-13T08:20:19;19.60;99.90
60027;DHT22;45891;53.006;6.512;2023-07-13T08:22:45;19.60;99.90
60027;DHT22;45891;53.006;6.512;2023-07-13T08:25:11;19.50;99.90
60027;DHT22;45891;53.006;6.512;2023-07-13T08:27:40;19.50;99.90
60027;DHT22;45891;53.006;6.512;2023-07-13T08:30:06;19.50;99.90
60027;DHT22;45891;53.006;6.512;2023-07-13T08:32:35;19.50;99.90
60027;DHT22;45891;53.006;6.512;2023-07-13T08:35:02;19.60;99.90
60027;DHT22;45891;53.006;6.512;2023-07-13T08:37:29;19.60;99.90
60027;DHT22;45891;53.006;6.512;2023-07-13T08:39:58;19.50;99.90
60027;DHT22;45891;53.006;6.512;2023-07-13T08:47:40;18.50;99.90
60027;DHT22;45891;53.006;6.512;2023-07-13T08:50:15;17.40;99.90
60027;DHT22;45891;53.006;6.512;2023-07-13T08:52:44;16.70;99.90
60027;DHT22;45891;53.006;6.512;2023-07-13T08:55:21;16.40;99.90
60027;DHT22;45891;53.006;6.512;2023-07-13T08:58:12;16.30;99.90
60027;DHT22;45891;53.006;6.512;2023-07-13T09:00:48;16.30;99.90
60027;DHT22;45891;53.006;6.512;2023-07-13T09:03:24;16.30;99.90
60027;DHT22;45891;53.006;6.512;2023-07-13T09:06:00;16.50;99.90
60027;DHT22;45891;53.006;6.512;2023-07-13T09:08:54;16.90;99.90
60027;DHT22;45891;53.006;6.512;2023-07-13T09:11:49;17.30;99.90
60027;DHT22;45891;53.006;6.512;2023-07-13T09:14:49;17.70;99.90
60027;DHT22;45891;53.006;6.512;2023-07-13T09:17:23;17.90;99.90
60027;DHT22;45891;53.006;6.512;2023-07-13T09:19:58;18.00;99.90
60027;DHT22;45891;53.006;6.512;2023-07-13T09:22:26;18.30;99.90
60027;DHT22;45891;53.006;6.512;2023-07-13T09:25:31;18.40;99.90
60027;DHT22;45891;53.006;6.512;2023-07-13T09:28:13;18.30;99.90
60027;DHT22;45891;53.006;6.512;2023-07-13T09:31:13;18.40;99.90
60027;DHT22;45891;53.006;6.512;2023-07-13T09:33:40;18.50;99.90
60027;DHT22;45891;53.006;6.512;2023-07-13T09:36:23;18.40;99.90
60027;DHT22;45891;53.006;6.512;2023-07-13T09:39:21;18.30;99.90
60027;DHT22;45891;53.006;6.512;2023-07-13T09:42:14;18.50;99.90
60027;DHT22;45891;53.006;6.512;2023-07-13T09:49:56;20.50;99.90
60027;DHT22;45891;53.006;6.512;2023-07-13T09:52:22;20.60;99.90
60027;DHT22;45891;53.006;6.512;2023-07-13T09:54:50;20.60;99.90
60027;DHT22;45891;53.006;6.512;2023-07-13T09:57:19;21.30;99.90
60027;DHT22;45891;53.006;6.512;2023-07-13T09:59:50;21.80;99.90
60027;DHT22;45891;53.006;6.512;2023-07-13T10:02:30;21.40;99.90
60027;DHT22;45891;53.006;6.512;2023-07-13T10:05:02;20.90;99.90
60027;DHT22;45891;53.006;6.512;2023-07-13T10:07:30;20.30;99.90
60027;DHT22;45891;53.006;6.512;2023-07-13T10:09:58;20.10;99.90
60027;DHT22;45891;53.006;6.512;2023-07-13T10:12:28;19.70;99.90
60027;DHT22;45891;53.006;6.512;2023-07-13T10:14:56;19.30;99.90
60027;DHT22;45891;53.006;6.512;2023-07-13T10:17:29;18.90;99.90
60027;DHT22;45891;53.006;6.512;2023-07-13T10:20:04;18.20;99.90
60027;DHT22;45891;53.006;6.512;2023-07-13T10:23:00;17.80;99.90
60027;DHT22;45891;53.006;6.512;2023-07-13T10:25:32;17.50;99.90
60027;DHT22;45891;53.006;6.512;2023-07-13T10:28:01;17.30;99.90
60027;DHT22;45891;53.006;6.512;2023-07-13T10:30:32;17.20;99.90
60027;DHT22;45891;53.006;6.512;2023-07-13T10:33:02;17.00;99.90
60027;DHT22;45891;53.006;6.512;2023-07-13T10:35:30;16.90;99.90
60027;DHT22;45891;53.006;6.512;2023-07-13T10:38:06;17.00;99.90
60027;DHT22;45891;53.006;6.512;2023-07-13T10:40:47;17.00;99.90
60027;DHT22;45891;53.006;6.512;2023-07-13T10:43:31;17.60;99.90
60027;DHT22;45891;53.006;6.512;2023-07-13T10:45:59;18.20;99.90
60027;DHT22;45891;53.006;6.512;2023-07-13T10:48:27;18.60;99.90
60027;DHT22;45891;53.006;6.512;2023-07-13T10:50:55;18.70;99.90
60027;DHT22;45891;53.006;6.512;2023-07-13T10:53:28;18.40;99.90
60027;DHT22;45891;53.006;6.512;2023-07-13T10:56:04;18.20;99.90
60027;DHT22;45891;53.006;6.512;2023-07-13T10:58:39;18.20;99.90
60027;DHT22;45891;53.006;6.512;2023-07-13T11:03:36;19.40;99.90
60027;DHT22;45891;53.006;6.512;2023-07-13T11:09:33;20.70;99.90
60027;DHT22;45891;53.006;6.512;2023-07-13T11:12:10;21.60;99.90
60027;DHT22;45891;53.006;6.512;2023-07-13T11:25:31;22.10;99.90
60027;DHT22;45891;53.006;6.512;2023-07-13T11:36:16;22.60;99.90
60027;DHT22;45891;53.006;6.512;2023-07-13T11:38:59;22.90;99.70
60027;DHT22;45891;53.006;6.512;2023-07-13T11:41:33;22.50;98.20
60027;DHT22;45891;53.006;6.512;2023-07-13T11:44:28;22.70;99.90
60027;DHT22;45891;53.006;6.512;2023-07-13T11:46:59;23.00;97.50
60027;DHT22;45891;53.006;6.512;2023-07-13T11:49:28;23.30;97.30
60027;DHT22;45891;53.006;6.512;2023-07-13T11:51:56;23.60;99.10
60027;DHT22;45891;53.006;6.512;2023-07-13T11:54:29;23.90;96.50
60027;DHT22;45891;53.006;6.512;2023-07-13T11:56:58;24.00;95.90
60027;DHT22;45891;53.006;6.512;2023-07-13T11:59:26;23.90;98.30
60027;DHT22;45891;53.006;6.512;2023-07-13T12:01:54;24.10;95.40
60027;DHT22;45891;53.006;6.512;2023-07-13T12:04:32;24.10;98.00
60027;DHT22;45891;53.006;6.512;2023-07-13T12:07:05;24.10;97.10
60027;DHT22;45891;53.006;6.512;2023-07-13T12:09:33;24.30;95.00
60027;DHT22;45891;53.006;6.512;2023-07-13T12:11:59;24.30;95.60
60027;DHT22;45891;53.006;6.512;2023-07-13T12:14:29;24.90;96.30
60027;DHT22;45891;53.006;6.512;2023-07-13T12:16:59;24.90;95.20
60027;DHT22;45891;53.006;6.512;2023-07-13T12:19:27;24.30;93.70
60027;DHT22;45891;53.006;6.512;2023-07-13T12:21:57;24.30;94.90
60027;DHT22;45891;53.006;6.512;2023-07-13T12:24:24;24.30;94.60
60027;DHT22;45891;53.006;6.512;2023-07-13T12:26:59;24.20;93.60
60027;DHT22;45891;53.006;6.512;2023-07-13T12:29:26;24.30;93.80
60027;DHT22;45891;53.006;6.512;2023-07-13T12:31:52;24.00;93.70
60027;DHT22;45891;53.006;6.512;2023-07-13T12:34:21;24.40;94.90
60027;DHT22;45891;53.006;6.512;2023-07-13T12:39:20;24.50;94.70
60027;DHT22;45891;53.006;6.512;2023-07-13T12:41:48;24.50;92.40
60027;DHT22;45891;53.006;6.512;2023-07-13T12:44:22;24.90;93.40
60027;DHT22;45891;53.006;6.512;2023-07-13T12:47:13;24.70;94.40
60027;DHT22;45891;53.006;6.512;2023-07-13T12:49:48;24.80;92.10
60027;DHT22;45891;53.006;6.512;2023-07-13T12:52:21;25.00;92.70
60027;DHT22;45891;53.006;6.512;2023-07-13T12:55:02;24.40;91.10
60027;DHT22;45891;53.006;6.512;2023-07-13T12:57:29;23.60;92.20
60027;DHT22;45891;53.006;6.512;2023-07-13T12:59:56;23.00;93.10
60027;DHT22;45891;53.006;6.512;2023-07-13T13:02:30;22.70;93.60
60027;DHT22;45891;53.006;6.512;2023-07-13T13:04:59;22.60;92.70
60027;DHT22;45891;53.006;6.512;2023-07-13T13:07:26;22.50;93.00
60027;DHT22;45891;53.006;6.512;2023-07-13T13:09:52;22.40;94.40
60027;DHT22;45891;53.006;6.512;2023-07-13T13:12:22;23.00;94.50
60027;DHT22;45891;53.006;6.512;2023-07-13T13:14:51;22.90;94.00
60027;DHT22;45891;53.006;6.512;2023-07-13T13:17:30;22.90;93.40
60027;DHT22;45891;53.006;6.512;2023-07-13T13:19:57;23.40;93.70
60027;DHT22;45891;53.006;6.512;2023-07-13T13:22:23;23.70;92.80
60027;DHT22;45891;53.006;6.512;2023-07-13T13:24:49;23.70;93.40
60027;DHT22;45891;53.006;6.512;2023-07-13T13:27:21;24.00;93.40
60027;DHT22;45891;53.006;6.512;2023-07-13T13:29:50;24.00;92.50
60027;DHT22;45891;53.006;6.512;2023-07-13T13:32:20;24.40;92.80
60027;DHT22;45891;53.006;6.512;2023-07-13T13:34:46;24.30;93.00
60027;DHT22;45891;53.006;6.512;2023-07-13T13:37:22;24.20;93.00
60027;DHT22;45891;53.006;6.512;2023-07-13T13:39:49;24.50;93.50
60027;DHT22;45891;53.006;6.512;2023-07-13T13:42:16;24.20;93.30
60027;DHT22;45891;53.006;6.512;2023-07-13T13:44:43;24.10;92.70
60027;DHT22;45891;53.006;6.512;2023-07-13T13:47:30;24.30;92.80
60027;DHT22;45891;53.006;6.512;2023-07-13T13:49:57;24.80;91.70
60027;DHT22;45891;53.006;6.512;2023-07-13T13:52:24;24.80;91.90
60027;DHT22;45891;53.006;6.512;2023-07-13T13:54:50;24.60;92.00
60027;DHT22;45891;53.006;6.512;2023-07-13T13:57:24;24.50;91.80
60027;DHT22;45891;53.006;6.512;2023-07-13T13:59:52;24.20;91.70
60027;DHT22;45891;53.006;6.512;2023-07-13T14:02:28;24.30;91.60
60027;DHT22;45891;53.006;6.512;2023-07-13T14:04:59;23.80;91.60
60027;DHT22;45891;53.006;6.512;2023-07-13T14:07:26;23.90;91.70
60027;DHT22;45891;53.006;6.512;2023-07-13T14:09:58;24.20;91.70
60027;DHT22;45891;53.006;6.512;2023-07-13T14:12:25;24.60;91.70
60027;DHT22;45891;53.006;6.512;2023-07-13T14:14:55;24.80;91.90
60027;DHT22;45891;53.006;6.512;2023-07-13T14:17:25;25.10;91.90
60027;DHT22;45891;53.006;6.512;2023-07-13T14:19:53;24.20;91.50
60027;DHT22;45891;53.006;6.512;2023-07-13T14:22:24;23.80;92.00
60027;DHT22;45891;53.006;6.512;2023-07-13T14:24:52;23.90;92.60
60027;DHT22;45891;53.006;6.512;2023-07-13T14:27:19;24.60;91.90
60027;DHT22;45891;53.006;6.512;2023-07-13T14:29:45;24.30;92.20
60027;DHT22;45891;53.006;6.512;2023-07-13T14:32:13;24.30;92.20
60027;DHT22;45891;53.006;6.512;2023-07-13T14:34:39;23.80;92.10
60027;DHT22;45891;53.006;6.512;2023-07-13T14:37:08;23.60;91.80
60027;DHT22;45891;53.006;6.512;2023-07-13T14:39:38;23.90;91.90
60027;DHT22;45891;53.006;6.512;2023-07-13T14:42:04;24.20;91.80
60027;DHT22;45891;53.006;6.512;2023-07-13T14:44:31;24.40;91.40
60027;DHT22;45891;53.006;6.512;2023-07-13T14:46:59;24.50;91.30
60027;DHT22;45891;53.006;6.512;2023-07-13T14:49:38;24.40;91.70
60027;DHT22;45891;53.006;6.512;2023-07-13T14:52:17;24.40;92.10
60027;DHT22;45891;53.006;6.512;2023-07-13T14:54:43;24.20;91.10
60027;DHT22;45891;53.006;6.512;2023-07-13T14:57:16;24.40;91.50
60027;DHT22;45891;53.006;6.512;2023-07-13T14:59:44;24.40;91.00
60027;DHT22;45891;53.006;6.512;2023-07-13T15:02:25;24.70;91.20
60027;DHT22;45891;53.006;6.512;2023-07-13T15:04:53;25.10;90.80
60027;DHT22;45891;53.006;6.512;2023-07-13T15:07:20;24.50;91.20
60027;DHT22;45891;53.006;6.512;2023-07-13T15:09:47;24.20;91.80
60027;DHT22;45891;53.006;6.512;2023-07-13T15:12:14;24.80;91.50
60027;DHT22;45891;53.006;6.512;2023-07-13T15:14:40;25.40;91.10
60027;DHT22;45891;53.006;6.512;2023-07-13T15:17:26;25.80;90.80
60027;DHT22;45891;53.006;6.512;2023-07-13T15:19:53;25.90;89.60
60027;DHT22;45891;53.006;6.512;2023-07-13T15:22:19;25.50;90.10
60027;DHT22;45891;53.006;6.512;2023-07-13T15:24:45;25.20;90.40
60027;DHT22;45891;53.006;6.512;2023-07-13T15:27:13;25.20;90.50
60027;DHT22;45891;53.006;6.512;2023-07-13T15:29:39;25.50;90.80
60027;DHT22;45891;53.006;6.512;2023-07-13T15:32:14;25.70;91.20
60027;DHT22;45891;53.006;6.512;2023-07-13T15:34:41;25.70;90.90
60027;DHT22;45891;53.006;6.512;2023-07-13T15:37:16;25.60;91.20
60027;DHT22;45891;53.006;6.512;2023-07-13T15:39:43;25.70;90.90
60027;DHT22;45891;53.006;6.512;2023-07-13T15:42:15;24.90;91.40
60027;DHT22;45891;53.006;6.512;2023-07-13T15:44:41;24.70;91.50
60027;DHT22;45891;53.006;6.512;2023-07-13T15:47:12;24.00;91.60
60027;DHT22;45891;53.006;6.512;2023-07-13T15:49:38;24.20;92.00
60027;DHT22;45891;53.006;6.512;2023-07-13T15:52:05;24.80;91.70
60027;DHT22;45891;53.006;6.512;2023-07-13T15:54:36;24.60;91.00
60027;DHT22;45891;53.006;6.512;2023-07-13T15:57:04;24.70;91.30
60027;DHT22;45891;53.006;6.512;2023-07-13T15:59:32;25.00;91.10
60027;DHT22;45891;53.006;6.512;2023-07-13T16:01:58;24.90;91.30
60027;DHT22;45891;53.006;6.512;2023-07-13T16:04:24;24.30;91.70
60027;DHT22;45891;53.006;6.512;2023-07-13T16:06:50;24.20;91.50
60027;DHT22;45891;53.006;6.512;2023-07-13T16:09:22;24.50;91.70
60027;DHT22;45891;53.006;6.512;2023-07-13T16:11:49;24.10;91.70
60027;DHT22;45891;53.006;6.512;2023-07-13T16:14:16;24.00;91.90
60027;DHT22;45891;53.006;6.512;2023-07-13T16:16:44;23.60;91.40
60027;DHT22;45891;53.006;6.512;2023-07-13T16:19:11;23.50;91.90
60027;DHT22;45891;53.006;6.512;2023-07-13T16:21:43;23.50;91.60
60027;DHT22;45891;53.006;6.512;2023-07-13T16:24:17;23.10;92.00